Time;durP1;ratioP1;P1;durP2;ratioP2;P2;SDS_P1;SDS_P2;PMS_P1;PMS_P2;Temp;Humidity;BMP_temperature;BMP_pressure;BME280_temperature;BME280_humidity;BME280_pressure;Samples;Min_cycle;Max_cycle;Signal;HPM_P1;HPM_P2
2021/07/23 00:01:51;;;;;;;15.40;13.93;;;18.80;99.90;;;;;;4992372;28;20178;-65
2021/07/23 00:04:16;;;;;;;13.57;12.27;;;18.80;99.90;;;;;;4992428;28;20294;-66
2021/07/23 00:06:42;;;;;;;14.03;12.53;;;18.80;99.90;;;;;;4992589;28;20506;-65
2021/07/23 00:09:07;;;;;;;15.70;12.17;;;18.80;99.90;;;;;;4992303;28;20199;-65
2021/07/23 00:11:33;;;;;;;15.03;13.53;;;18.80;99.90;;;;;;4987541;28;20191;-65
2021/07/23 00:13:59;;;;;;;12.73;11.53;;;18.70;99.90;;;;;;4972859;28;20566;-65
2021/07/23 00:16:24;;;;;;;13.73;12.30;;;18.70;99.90;;;;;;4973132;28;20196;-65
2021/07/23 00:18:50;;;;;;;14.37;12.57;;;18.60;99.90;;;;;;4972654;28;20509;-64
2021/07/23 00:21:15;;;;;;;14.53;13.13;;;18.60;99.90;;;;;;4973003;28;20183;-65
2021/07/23 00:23:41;;;;;;;12.83;10.93;;;18.50;99.90;;;;;;4972954;28;20238;-66
2021/07/23 00:26:13;;;;;;;14.00;12.53;;;18.50;99.90;;;;;;4972909;28;20179;-65
2021/07/23 00:28:39;;;;;;;13.40;12.00;;;18.50;99.90;;;;;;4972401;28;20176;-65
2021/07/23 00:31:05;;;;;;;14.97;12.10;;;18.50;99.90;;;;;;4972909;28;20943;-65
2021/07/23 00:33:31;;;;;;;13.27;11.80;;;18.50;99.90;;;;;;4972679;28;20443;-65
2021/07/23 00:35:56;;;;;;;17.60;13.53;;;18.50;99.90;;;;;;4972883;28;20272;-65
2021/07/23 00:38:22;;;;;;;18.73;11.97;;;18.40;99.90;;;;;;4972625;28;20181;-65
2021/07/23 00:40:47;;;;;;;14.90;12.90;;;18.40;99.90;;;;;;4972762;28;20176;-65
2021/07/23 00:43:13;;;;;;;14.93;13.10;;;18.40;99.90;;;;;;4972630;28;20227;-65
2021/07/23 00:45:38;;;;;;;13.00;11.60;;;18.40;99.90;;;;;;4972830;28;20540;-65
2021/07/23 00:48:04;;;;;;;15.90;13.17;;;18.40;99.90;;;;;;4972760;28;20181;-65
2021/07/23 00:50:31;;;;;;;13.87;12.47;;;18.40;99.90;;;;;;4955164;28;20204;-65
2021/07/23 00:52:57;;;;;;;13.33;11.60;;;18.30;99.90;;;;;;4972603;28;20189;-65
2021/07/23 00:55:23;;;;;;;13.90;12.53;;;18.30;99.90;;;;;;4972683;28;20412;-65
2021/07/23 00:57:49;;;;;;;13.73;12.33;;;18.20;99.90;;;;;;4973072;28;20428;-65
2021/07/23 01:00:16;;;;;;;14.03;11.50;;;18.20;99.90;;;;;;4972359;28;20470;-65
2021/07/23 01:02:41;;;;;;;13.23;11.87;;;18.20;99.90;;;;;;4972318;28;20339;-65
2021/07/23 01:05:07;;;;;;;13.90;12.33;;;18.20;99.90;;;;;;4972686;28;21032;-66
2021/07/23 01:07:35;;;;;;;15.40;12.27;;;18.20;99.90;;;;;;4972640;28;20172;-65
2021/07/23 01:10:01;;;;;;;12.77;11.50;;;18.20;99.90;;;;;;4972267;28;20976;-65
2021/07/23 01:12:28;;;;;;;17.03;12.83;;;18.10;99.90;;;;;;4984621;28;20505;-65
2021/07/23 01:14:54;;;;;;;11.87;10.77;;;18.10;99.90;;;;;;4995509;28;20222;-65
2021/07/23 01:17:20;;;;;;;13.40;11.97;;;18.20;99.90;;;;;;4995383;28;20426;-65
2021/07/23 01:19:51;;;;;;;15.10;13.30;;;18.20;99.90;;;;;;4995078;28;20427;-65
2021/07/23 01:22:19;;;;;;;17.23;12.40;;;18.20;99.90;;;;;;4995271;28;20168;-65
2021/07/23 01:24:46;;;;;;;14.10;12.33;;;18.10;99.90;;;;;;4995215;28;20481;-65
2021/07/23 01:27:12;;;;;;;12.80;11.63;;;18.10;99.90;;;;;;4995205;28;20426;-65
2021/07/23 01:29:37;;;;;;;13.83;12.43;;;18.10;99.90;;;;;;4994982;28;20470;-66
2021/07/23 01:32:03;;;;;;;14.80;12.23;;;18.10;99.90;;;;;;4994944;28;20222;-65
2021/07/23 01:34:29;;;;;;;14.80;11.93;;;18.20;99.90;;;;;;4994848;28;20195;-65
2021/07/23 01:36:54;;;;;;;13.53;12.13;;;18.20;99.90;;;;;;4995098;28;20172;-65
2021/07/23 01:39:20;;;;;;;14.90;12.03;;;18.20;99.90;;;;;;4994711;28;20201;-65
2021/07/23 01:41:46;;;;;;;15.73;13.10;;;18.30;99.90;;;;;;4994902;28;20650;-65
2021/07/23 01:44:12;;;;;;;13.70;11.97;;;18.20;99.90;;;;;;4994869;28;20438;-65
2021/07/23 01:46:37;;;;;;;14.30;12.30;;;18.20;99.90;;;;;;4994890;28;20172;-65
2021/07/23 01:49:03;;;;;;;13.67;12.37;;;18.20;99.90;;;;;;4994438;28;20198;-65
2021/07/23 01:51:28;;;;;;;13.13;11.90;;;18.10;99.90;;;;;;4994786;28;20187;-65
2021/07/23 01:53:54;;;;;;;11.43;10.43;;;18.10;99.90;;;;;;4994627;28;20191;-65
2021/07/23 01:56:19;;;;;;;12.67;11.37;;;18.00;99.90;;;;;;4994538;28;20167;-65
2021/07/23 01:58:45;;;;;;;14.90;13.40;;;17.90;99.90;;;;;;4994395;28;20246;-65
2021/07/23 02:01:11;;;;;;;13.40;12.10;;;17.90;99.90;;;;;;4994698;28;20196;-65
2021/07/23 02:03:36;;;;;;;12.33;11.13;;;18.00;99.90;;;;;;4994379;28;20298;-65
2021/07/23 02:06:02;;;;;;;14.10;12.80;;;18.00;99.90;;;;;;4994565;28;20172;-65
2021/07/23 02:08:27;;;;;;;13.53;12.23;;;17.90;99.90;;;;;;4994121;28;20218;-65
2021/07/23 02:10:53;;;;;;;13.57;12.07;;;17.80;99.90;;;;;;4994279;28;20199;-66
2021/07/23 02:13:18;;;;;;;13.27;11.83;;;17.80;99.90;;;;;;4975166;28;20203;-65
2021/07/23 02:15:44;;;;;;;13.93;12.57;;;17.80;99.90;;;;;;4974850;28;20211;-65
2021/07/23 02:18:10;;;;;;;14.60;13.13;;;17.70;99.90;;;;;;4974694;28;20176;-65
2021/07/23 02:20:37;;;;;;;15.67;12.20;;;17.70;99.90;;;;;;4974248;28;20176;-65
2021/07/23 02:23:03;;;;;;;13.60;11.60;;;17.60;99.90;;;;;;4974660;28;20287;-65
2021/07/23 02:25:30;;;;;;;11.97;10.77;;;17.60;99.90;;;;;;4974549;28;20431;-65
2021/07/23 02:27:56;;;;;;;12.77;11.57;;;17.50;99.90;;;;;;4974637;28;20473;-65
2021/07/23 02:30:22;;;;;;;13.60;12.30;;;17.50;99.90;;;;;;4974291;28;20456;-65
2021/07/23 02:32:47;;;;;;;14.87;11.87;;;17.50;99.90;;;;;;4974447;28;20446;-65
2021/07/23 02:35:13;;;;;;;14.03;12.60;;;17.50;99.90;;;;;;4974555;28;20176;-65
2021/07/23 02:37:38;;;;;;;13.03;11.73;;;17.50;99.90;;;;;;4974436;28;20169;-65
2021/07/23 02:40:05;;;;;;;14.13;12.07;;;17.40;99.90;;;;;;4974018;28;20234;-65
2021/07/23 02:42:31;;;;;;;13.53;12.33;;;17.30;99.90;;;;;;4974313;28;20192;-65
2021/07/23 02:44:56;;;;;;;14.10;12.70;;;17.30;99.90;;;;;;4974357;28;20424;-65
2021/07/23 02:47:22;;;;;;;12.50;11.30;;;17.30;99.90;;;;;;4974292;28;20176;-65
2021/07/23 02:49:47;;;;;;;12.87;11.60;;;17.20;99.90;;;;;;4973950;28;20220;-65
2021/07/23 02:52:13;;;;;;;15.00;13.20;;;17.20;99.90;;;;;;4974038;28;20176;-65
2021/07/23 02:54:38;;;;;;;12.43;11.33;;;17.20;99.90;;;;;;4956744;28;20176;-66
2021/07/23 02:57:04;;;;;;;13.63;12.33;;;17.20;99.90;;;;;;4974116;28;20589;-65
2021/07/23 02:59:29;;;;;;;13.77;12.37;;;17.10;99.90;;;;;;4973767;28;20196;-65
2021/07/23 03:01:55;;;;;;;13.47;11.87;;;17.10;99.90;;;;;;4974110;28;20267;-65
2021/07/23 03:04:20;;;;;;;14.33;12.23;;;17.10;99.90;;;;;;4973827;28;20212;-65
2021/07/23 03:06:46;;;;;;;14.10;12.50;;;17.00;99.90;;;;;;4973922;28;20194;-65
2021/07/23 03:09:11;;;;;;;13.03;11.70;;;17.00;99.90;;;;;;4973144;28;20196;-65
2021/07/23 03:11:37;;;;;;;13.53;12.23;;;16.90;99.90;;;;;;4978985;28;20176;-65
2021/07/23 03:14:02;;;;;;;13.33;11.90;;;16.90;99.90;;;;;;4975753;28;20199;-65
2021/07/23 03:16:28;;;;;;;11.70;10.50;;;16.90;99.90;;;;;;4993247;28;20180;-65
2021/07/23 03:18:53;;;;;;;12.27;11.13;;;16.90;99.90;;;;;;4992890;28;20546;-65
2021/07/23 03:21:21;;;;;;;12.30;11.00;;;16.80;99.90;;;;;;4993172;28;20168;-65
2021/07/23 03:23:47;;;;;;;14.20;12.90;;;16.80;99.90;;;;;;4992963;28;20210;-65
2021/07/23 03:26:12;;;;;;;13.10;11.80;;;16.80;99.90;;;;;;4993236;28;20951;-65
2021/07/23 03:28:38;;;;;;;15.73;13.03;;;16.80;99.90;;;;;;4992701;28;20415;-66
2021/07/23 03:31:03;;;;;;;12.93;11.67;;;16.80;99.90;;;;;;4992937;28;20207;-65
2021/07/23 03:33:29;;;;;;;17.30;11.60;;;16.80;99.90;;;;;;4992885;28;20219;-65
2021/07/23 03:35:55;;;;;;;12.77;11.50;;;16.70;99.90;;;;;;4992382;28;20178;-65
2021/07/23 03:38:20;;;;;;;13.30;12.00;;;16.70;99.90;;;;;;4992658;28;20202;-65
2021/07/23 03:40:46;;;;;;;13.63;12.33;;;16.70;99.90;;;;;;4992693;28;20183;-65
2021/07/23 03:43:12;;;;;;;15.63;12.53;;;16.60;99.90;;;;;;4993102;28;20199;-65
2021/07/23 03:45:37;;;;;;;16.07;13.27;;;16.60;99.90;;;;;;4992756;28;20430;-65
2021/07/23 03:48:03;;;;;;;13.27;12.00;;;16.60;99.90;;;;;;4992647;28;20167;-65
2021/07/23 03:50:29;;;;;;;13.87;12.47;;;16.70;99.90;;;;;;4992370;28;20282;-65
2021/07/23 03:52:55;;;;;;;17.00;12.77;;;16.60;99.90;;;;;;4992450;28;20650;-66
2021/07/23 03:55:20;;;;;;;13.60;12.20;;;16.60;99.90;;;;;;4992667;28;20203;-66
2021/07/23 03:57:46;;;;;;;15.37;13.80;;;16.50;99.90;;;;;;4992630;28;20518;-65
2021/07/23 04:00:12;;;;;;;13.77;10.57;;;16.50;99.90;;;;;;4992446;28;20186;-65
2021/07/23 04:02:37;;;;;;;15.73;12.83;;;16.60;99.90;;;;;;4993024;28;20204;-65
2021/07/23 04:05:04;;;;;;;13.40;12.03;;;16.50;99.90;;;;;;4992588;28;20778;-65
2021/07/23 04:07:32;;;;;;;14.50;13.00;;;16.50;99.90;;;;;;4992352;28;20183;-64
2021/07/23 04:09:59;;;;;;;14.57;12.00;;;16.60;99.90;;;;;;4992300;28;20469;-64
2021/07/23 04:12:24;;;;;;;12.77;11.50;;;16.70;99.90;;;;;;4980511;28;20431;-65
2021/07/23 04:14:50;;;;;;;13.30;11.90;;;16.60;99.90;;;;;;4973081;28;20415;-65
2021/07/23 04:17:15;;;;;;;12.63;11.33;;;16.60;99.90;;;;;;4973014;28;20198;-65
2021/07/23 04:19:41;;;;;;;13.00;11.53;;;16.60;99.90;;;;;;4972703;28;20176;-65
2021/07/23 04:22:07;;;;;;;13.93;12.33;;;16.70;99.90;;;;;;4972930;28;20594;-64
2021/07/23 04:24:32;;;;;;;13.57;12.27;;;16.70;99.90;;;;;;4972993;28;20180;-64
2021/07/23 04:26:58;;;;;;;14.43;13.03;;;16.70;99.90;;;;;;4972926;28;20514;-65
2021/07/23 04:29:24;;;;;;;13.80;12.03;;;16.70;99.90;;;;;;4972598;28;20196;-64
2021/07/23 04:31:50;;;;;;;14.33;11.93;;;16.70;99.90;;;;;;4972982;28;20796;-65
2021/07/23 04:34:15;;;;;;;12.60;11.50;;;16.80;99.90;;;;;;4972780;28;20199;-65
2021/07/23 04:36:41;;;;;;;17.93;12.60;;;16.80;99.90;;;;;;4955434;28;20595;-64
2021/07/23 04:39:06;;;;;;;13.30;12.00;;;16.80;99.90;;;;;;4978869;28;20186;-64
2021/07/23 04:41:32;;;;;;;14.33;11.80;;;16.90;99.90;;;;;;4992382;28;20187;-65
2021/07/23 04:43:58;;;;;;;15.47;12.03;;;17.00;99.90;;;;;;4992213;28;20585;-64
2021/07/23 04:46:23;;;;;;;13.27;11.97;;;17.10;99.90;;;;;;4992225;28;20206;-65
2021/07/23 04:48:49;;;;;;;13.37;12.00;;;17.20;99.90;;;;;;4994149;28;20633;-64
2021/07/23 04:51:15;;;;;;;13.97;12.67;;;17.30;99.90;;;;;;4995749;28;20182;-64
2021/07/23 04:53:40;;;;;;;13.43;12.03;;;17.40;99.90;;;;;;4995769;28;20192;-64
2021/07/23 04:56:07;;;;;;;15.33;13.00;;;17.30;99.90;;;;;;4995811;28;20175;-64
2021/07/23 04:58:33;;;;;;;13.17;11.87;;;17.40;99.90;;;;;;4995760;28;20184;-64
2021/07/23 05:00:58;;;;;;;13.40;12.10;;;17.40;99.90;;;;;;4995719;28;20418;-64
2021/07/23 05:03:35;;;;;;;14.23;12.13;;;17.50;99.90;;;;;;5007226;28;20253;-64
2021/07/23 05:06:02;;;;;;;14.37;12.87;;;17.60;99.90;;;;;;4978437;28;20211;-64
2021/07/23 05:08:28;;;;;;;14.50;13.17;;;17.90;99.90;;;;;;4987407;28;20493;-64
2021/07/23 05:10:54;;;;;;;13.77;12.37;;;18.10;99.90;;;;;;5007839;28;20470;-64
2021/07/23 05:13:21;;;;;;;14.60;12.43;;;18.20;99.90;;;;;;4995669;28;20598;-64
2021/07/23 05:15:47;;;;;;;14.67;13.17;;;18.30;99.90;;;;;;5001481;28;20429;-64
2021/07/23 05:18:13;;;;;;;14.87;13.30;;;18.40;99.90;;;;;;4997035;28;20431;-65
2021/07/23 05:20:38;;;;;;;14.30;13.03;;;18.40;99.90;;;;;;5007101;28;20488;-64
2021/07/23 05:23:04;;;;;;;17.47;12.33;;;18.50;99.90;;;;;;4995186;28;20438;-64
2021/07/23 05:25:32;;;;;;;16.20;14.70;;;18.50;99.90;;;;;;5000723;28;20559;-65
2021/07/23 05:27:57;;;;;;;16.80;15.20;;;18.60;99.90;;;;;;5000885;28;20180;-64
2021/07/23 05:30:23;;;;;;;17.93;16.23;;;18.50;99.90;;;;;;5005039;28;20458;-64
2021/07/23 05:32:48;;;;;;;18.33;16.57;;;18.50;99.90;;;;;;4991344;28;20221;-64
2021/07/23 05:35:14;;;;;;;18.13;15.73;;;18.60;99.90;;;;;;5002522;28;20176;-64
2021/07/23 05:37:39;;;;;;;15.90;14.40;;;18.60;99.90;;;;;;5010613;28;20171;-65
2021/07/23 05:40:06;;;;;;;15.50;13.97;;;18.70;99.90;;;;;;5014332;28;20178;-64
2021/07/23 05:42:32;;;;;;;15.77;14.27;;;18.80;99.90;;;;;;5014397;28;20194;-65
2021/07/23 05:44:57;;;;;;;15.07;13.67;;;19.10;99.90;;;;;;4997778;28;20809;-64
2021/07/23 05:47:23;;;;;;;14.47;13.07;;;19.20;99.90;;;;;;4994682;28;20437;-64
2021/07/23 05:49:48;;;;;;;18.43;14.20;;;19.30;99.90;;;;;;4996108;28;20214;-64
2021/07/23 05:52:14;;;;;;;15.27;13.43;;;19.40;99.90;;;;;;5004729;28;20657;-64
2021/07/23 05:54:39;;;;;;;15.97;14.27;;;19.50;99.90;;;;;;4994778;28;20168;-64
2021/07/23 05:57:05;;;;;;;13.53;12.23;;;19.60;99.90;;;;;;5010396;28;20202;-64
2021/07/23 05:59:32;;;;;;;16.20;12.97;;;19.70;99.90;;;;;;5013487;28;20178;-64
2021/07/23 06:01:57;;;;;;;15.40;13.80;;;19.70;99.90;;;;;;5008730;28;20179;-65
2021/07/23 06:04:23;;;;;;;13.70;12.40;;;19.80;99.90;;;;;;4976799;28;20996;-64
2021/07/23 06:06:48;;;;;;;12.87;11.67;;;20.00;99.90;;;;;;4994565;28;20545;-64
2021/07/23 06:09:15;;;;;;;14.93;12.13;;;20.30;99.90;;;;;;4994058;28;20200;-64
2021/07/23 06:11:40;;;;;;;14.33;12.70;;;20.40;99.90;;;;;;4988386;28;20634;-64
2021/07/23 06:14:06;;;;;;;16.10;13.63;;;20.60;99.90;;;;;;4974884;28;20440;-64
2021/07/23 06:16:32;;;;;;;13.43;11.60;;;20.80;99.90;;;;;;4974831;28;20164;-64
2021/07/23 06:18:59;;;;;;;14.77;13.37;;;21.00;99.90;;;;;;4974465;28;20801;-64
2021/07/23 06:21:24;;;;;;;14.57;13.17;;;21.10;99.90;;;;;;4974771;28;20168;-64
2021/07/23 06:23:50;;;;;;;15.13;13.53;;;21.20;99.90;;;;;;4974678;28;20453;-64
2021/07/23 06:26:16;;;;;;;16.33;12.87;;;21.20;99.90;;;;;;4974720;28;20320;-64
2021/07/23 06:28:41;;;;;;;13.57;12.13;;;21.30;99.90;;;;;;4974306;28;20301;-64
2021/07/23 06:31:07;;;;;;;13.80;12.40;;;21.40;99.90;;;;;;4974419;28;20208;-64
2021/07/23 06:33:32;;;;;;;17.63;13.73;;;21.70;99.90;;;;;;4957063;28;20192;-64
2021/07/23 06:36:00;;;;;;;15.50;13.50;;;21.90;99.90;;;;;;4974541;28;20176;-64
2021/07/23 06:38:26;;;;;;;14.53;13.03;;;22.10;99.90;;;;;;4974591;28;20718;-64
2021/07/23 06:40:53;;;;;;;14.13;12.73;;;22.20;99.90;;;;;;4974498;28;20506;-64
2021/07/23 06:43:19;;;;;;;14.37;12.97;;;22.40;99.90;;;;;;4974245;28;20196;-65
2021/07/23 06:45:50;;;;;;;14.10;12.80;;;22.40;99.90;;;;;;4974228;28;20494;-66
2021/07/23 06:48:16;;;;;;;15.40;13.73;;;22.70;99.90;;;;;;4974143;28;20183;-64
2021/07/23 06:50:41;;;;;;;15.60;14.10;;;22.90;99.90;;;;;;4973986;28;20455;-64
2021/07/23 06:53:08;;;;;;;16.27;14.73;;;23.20;99.90;;;;;;4979508;28;20203;-66
2021/07/23 06:55:34;;;;;;;16.40;14.77;;;23.20;99.90;;;;;;4994758;28;20168;-64
2021/07/23 06:58:00;;;;;;;20.83;14.10;;;23.30;99.90;;;;;;5006079;28;21041;-64
2021/07/23 07:00:25;;;;;;;14.90;13.50;;;23.50;99.90;;;;;;5009142;28;20179;-64
2021/07/23 07:02:51;;;;;;;14.90;13.40;;;23.60;99.90;;;;;;5003860;28;20306;-65
2021/07/23 07:05:17;;;;;;;16.17;14.37;;;23.70;99.90;;;;;;5013240;28;20195;-64
2021/07/23 07:07:43;;;;;;;16.20;12.80;;;23.80;99.90;;;;;;4995634;28;20202;-65
2021/07/23 07:10:09;;;;;;;19.57;15.03;;;24.00;99.90;;;;;;4974908;28;20451;-65
2021/07/23 07:12:34;;;;;;;16.40;14.70;;;24.00;99.90;;;;;;4979823;28;20568;-65
2021/07/23 07:15:00;;;;;;;15.43;13.77;;;24.00;99.90;;;;;;4973844;28;20419;-64
2021/07/23 07:17:28;;;;;;;22.73;14.20;;;24.20;99.90;;;;;;4989034;28;20619;-65
2021/07/23 07:19:54;;;;;;;16.80;14.43;;;24.30;99.90;;;;;;5000959;28;20172;-64
2021/07/23 07:22:22;;;;;;;16.50;13.90;;;24.40;99.90;;;;;;5004218;28;20431;-64
2021/07/23 07:24:48;;;;;;;16.30;14.60;;;24.60;99.90;;;;;;4991985;28;20237;-64
2021/07/23 07:27:13;;;;;;;15.00;13.50;;;24.70;99.90;;;;;;4963571;28;21024;-65
2021/07/23 07:29:39;;;;;;;15.97;14.30;;;24.90;99.90;;;;;;4978104;28;20198;-65
2021/07/23 07:32:07;;;;;;;16.53;14.53;;;24.70;99.90;;;;;;4991492;28;20179;-65
2021/07/23 07:34:34;;;;;;;16.37;14.50;;;24.90;99.90;;;;;;4992787;28;20184;-64
2021/07/23 07:37:01;;;;;;;16.53;14.40;;;24.80;99.90;;;;;;4989631;28;20755;-64
2021/07/23 07:39:27;;;;;;;16.00;14.43;;;24.90;99.90;;;;;;4989522;28;20437;-66
2021/07/23 07:41:52;;;;;;;19.00;16.80;;;25.10;99.90;;;;;;4991645;28;20419;-64
2021/07/23 07:44:18;;;;;;;17.67;15.53;;;25.10;99.90;;;;;;4973885;28;20219;-65
2021/07/23 07:46:43;;;;;;;16.47;14.80;;;25.50;99.90;;;;;;4989179;28;20203;-64
2021/07/23 07:49:09;;;;;;;16.10;14.60;;;25.90;99.90;;;;;;4989193;28;20184;-64
2021/07/23 07:51:34;;;;;;;15.07;13.47;;;26.10;99.90;;;;;;4986895;28;20179;-64
2021/07/23 07:54:00;;;;;;;15.57;14.00;;;26.30;99.90;;;;;;4989772;28;20282;-65
2021/07/23 07:56:25;;;;;;;15.00;13.50;;;26.50;99.90;;;;;;4986340;28;20246;-64
2021/07/23 07:58:50;;;;;;;14.00;12.70;;;26.90;99.90;;;;;;4955562;28;20231;-64
2021/07/23 08:01:16;;;;;;;17.10;15.50;;;27.20;99.90;;;;;;4973332;28;20616;-64
2021/07/23 08:03:41;;;;;;;13.90;12.70;;;27.20;99.90;;;;;;4972958;28;20581;-64
2021/07/23 08:06:20;;;;;;;15.43;14.00;;;27.40;99.90;;;;;;4978074;28;20250;-64
2021/07/23 08:08:46;;;;;;;18.13;13.20;;;27.30;99.90;;;;;;4990816;28;20183;-63
2021/07/23 08:11:11;;;;;;;15.77;14.30;;;27.30;99.90;;;;;;4990138;28;20458;-65
2021/07/23 08:13:37;;;;;;;16.00;13.27;;;27.40;99.90;;;;;;4973133;28;20494;-63
2021/07/23 08:16:04;;;;;;;15.70;14.07;;;27.60;99.70;;;;;;4960116;28;20179;-64
2021/07/23 08:18:29;;;;;;;16.53;13.00;;;27.80;99.20;;;;;;4992191;28;20585;-63
2021/07/23 08:20:55;;;;;;;27.77;14.83;;;27.90;99.20;;;;;;4991482;28;20481;-64
2021/07/23 08:23:21;;;;;;;25.20;14.80;;;27.70;99.70;;;;;;4995980;28;20201;-60
2021/07/23 08:25:48;;;;;;;15.73;14.20;;;27.90;98.70;;;;;;4992677;28;20175;-61
2021/07/23 08:28:15;;;;;;;14.60;13.13;;;28.00;99.20;;;;;;4994586;28;20436;-63
2021/07/23 08:30:41;;;;;;;15.03;13.80;;;28.30;99.00;;;;;;4996174;28;20524;-61
2021/07/23 08:33:06;;;;;;;15.97;14.57;;;28.40;99.20;;;;;;4996252;28;20438;-61
2021/07/23 08:35:32;;;;;;;15.50;14.00;;;28.20;98.00;;;;;;4992557;28;20700;-61
2021/07/23 08:37:57;;;;;;;14.90;12.87;;;27.90;98.00;;;;;;4996197;28;20186;-64
2021/07/23 08:40:23;;;;;;;17.27;14.43;;;27.80;98.50;;;;;;4995848;28;20665;-64
2021/07/23 08:42:49;;;;;;;15.23;13.80;;;28.10;98.00;;;;;;4965466;28;20250;-64
2021/07/23 08:45:15;;;;;;;16.30;14.43;;;28.20;97.80;;;;;;4958762;28;20169;-62
2021/07/23 08:47:41;;;;;;;16.40;14.87;;;28.20;97.10;;;;;;4994887;28;20182;-61
2021/07/23 08:50:07;;;;;;;15.43;13.70;;;28.30;96.80;;;;;;4995595;28;20219;-62
2021/07/23 08:52:50;;;;;;;15.03;13.53;;;28.50;96.00;;;;;;4995862;28;20449;-63
2021/07/23 08:55:17;;;;;;;14.87;13.37;;;28.70;95.60;;;;;;4982007;28;20490;-64
2021/07/23 08:57:44;;;;;;;15.13;13.60;;;28.90;95.50;;;;;;4994465;28;20453;-65
2021/07/23 09:00:15;;;;;;;15.70;13.27;;;29.20;95.40;;;;;;4995461;28;20426;-60
2021/07/23 09:02:57;;;;;;;13.77;12.57;;;29.70;94.20;;;;;;4995474;28;20477;-64
2021/07/23 09:05:34;;;;;;;15.93;14.33;;;29.90;93.40;;;;;;4992644;28;20440;-62
2021/07/23 09:08:07;;;;;;;16.87;15.20;;;29.70;93.00;;;;;;4995634;28;20498;-63
2021/07/23 09:10:34;;;;;;;19.40;14.63;;;29.50;93.20;;;;;;4995254;28;20514;-63
2021/07/23 09:13:01;;;;;;;19.07;15.40;;;29.30;93.80;;;;;;4978953;28;20806;-65
2021/07/23 09:15:33;;;;;;;15.60;13.97;;;29.70;92.70;;;;;;4978420;28;20512;-64
2021/07/23 09:17:59;;;;;;;16.07;13.77;;;29.60;93.00;;;;;;4995822;28;20434;-65
2021/07/23 09:20:29;;;;;;;15.23;13.70;;;29.90;92.50;;;;;;4995098;28;20926;-65
2021/07/23 09:22:57;;;;;;;16.40;15.00;;;30.20;91.50;;;;;;4995495;28;20216;-65
2021/07/23 09:25:43;;;;;;;15.33;14.00;;;30.50;91.10;;;;;;4991636;28;20435;-65
2021/07/23 09:28:23;;;;;;;15.73;14.30;;;30.50;91.00;;;;;;4995127;28;20422;-62
2021/07/23 09:30:50;;;;;;;16.90;15.17;;;30.50;90.60;;;;;;4995210;28;20469;-63
2021/07/23 09:33:24;;;;;;;16.03;14.53;;;30.70;90.50;;;;;;4986750;28;20454;-63
2021/07/23 09:35:52;;;;;;;16.73;15.33;;;30.70;89.70;;;;;;4990288;28;20448;-62
2021/07/23 09:38:22;;;;;;;19.03;13.40;;;30.70;88.90;;;;;;4988075;28;20514;-63
2021/07/23 09:40:50;;;;;;;16.33;14.63;;;31.10;88.90;;;;;;4975306;28;20521;-62
2021/07/23 09:43:35;;;;;;;14.50;13.10;;;31.40;85.40;;;;;;4975297;28;20443;-63
2021/07/23 09:46:16;;;;;;;16.13;14.53;;;31.70;84.50;;;;;;4979290;28;20418;-62
2021/07/23 09:48:42;;;;;;;15.77;14.37;;;31.40;84.10;;;;;;4986564;28;20422;-62
2021/07/23 09:51:07;;;;;;;14.90;13.50;;;31.60;84.60;;;;;;4989186;28;20532;-65
2021/07/23 09:53:35;;;;;;;13.80;12.60;;;32.10;83.20;;;;;;4991101;28;20191;-65
2021/07/23 09:56:05;;;;;;;14.60;13.27;;;32.60;80.80;;;;;;4986986;28;20187;-62
2021/07/23 09:58:35;;;;;;;14.93;13.50;;;32.50;78.60;;;;;;4987253;28;20442;-63
2021/07/23 10:01:04;;;;;;;14.63;13.37;;;32.00;80.50;;;;;;4991108;28;20437;-63
2021/07/23 10:03:29;;;;;;;14.23;12.93;;;32.10;80.20;;;;;;5017767;23;20927;-62
2021/07/23 10:06:03;;;;;;;14.80;13.63;;;32.40;77.90;;;;;;4988452;28;20449;-62
2021/07/23 10:08:40;;;;;;;14.50;13.20;;;31.90;78.40;;;;;;5010469;28;20171;-62
2021/07/23 10:11:09;;;;;;;15.20;13.80;;;31.30;79.80;;;;;;5010275;28;20905;-62
2021/07/23 10:13:39;;;;;;;14.73;13.47;;;31.30;80.30;;;;;;5010392;28;20453;-61
2021/07/23 10:16:09;;;;;;;15.17;13.73;;;31.90;78.30;;;;;;4999409;28;20841;-62
2021/07/23 10:18:35;;;;;;;14.33;12.97;;;32.40;77.60;;;;;;4990773;28;20419;-62
2021/07/23 10:21:05;;;;;;;13.87;12.73;;;33.50;76.40;;;;;;4990950;28;20435;-61
2021/07/23 10:23:32;;;;;;;16.37;13.97;;;34.40;73.00;;;;;;4990254;28;20979;-63
2021/07/23 10:26:00;;;;;;;14.77;13.57;;;34.70;70.80;;;;;;4993394;28;20432;-62
2021/07/23 10:28:42;;;;;;;13.70;12.60;;;35.10;66.90;;;;;;4991048;28;20430;-64
2021/07/23 10:31:21;;;;;;;15.13;14.03;;;36.10;66.00;;;;;;4990982;28;20462;-63
2021/07/23 10:33:58;;;;;;;15.47;14.10;;;36.90;62.40;;;;;;4990324;28;20442;-63
2021/07/23 10:36:26;;;;;;;14.60;13.47;;;37.60;58.60;;;;;;4985345;28;20513;-63
2021/07/23 10:39:17;;;;;;;13.40;12.30;;;38.30;56.50;;;;;;4990477;28;20650;-63
2021/07/23 10:42:09;;;;;;;11.77;10.87;;;35.70;53.90;;;;;;4990493;28;20422;-64
2021/07/23 10:44:36;;;;;;;12.60;11.40;;;36.20;54.70;;;;;;4989989;28;20817;-64
2021/07/23 10:47:03;;;;;;;12.50;11.43;;;36.50;53.30;;;;;;4987737;28;20427;-63
2021/07/23 10:49:32;;;;;;;12.13;11.00;;;36.40;53.80;;;;;;4990335;28;20907;-63
2021/07/23 10:52:02;;;;;;;13.03;11.70;;;36.80;52.20;;;;;;4994213;28;20999;-63
2021/07/23 10:54:30;;;;;;;12.03;11.03;;;37.80;52.00;;;;;;4996044;28;20553;-64
2021/07/23 10:57:00;;;;;;;12.50;11.50;;;38.30;51.80;;;;;;4980666;28;20439;-64
2021/07/23 10:59:49;;;;;;;11.90;10.90;;;38.70;51.40;;;;;;4987669;28;20525;-63
2021/07/23 11:02:14;;;;;;;12.57;11.47;;;38.80;49.60;;;;;;4972387;28;20435;-64
2021/07/23 11:04:41;;;;;;;12.20;11.30;;;39.90;47.40;;;;;;4970724;28;20463;-63
2021/07/23 11:07:08;;;;;;;12.70;11.60;;;39.80;47.80;;;;;;4984728;28;20211;-64
2021/07/23 11:09:35;;;;;;;11.83;10.93;;;40.40;46.40;;;;;;4984186;28;20462;-63
2021/07/23 11:12:18;;;;;;;12.87;11.57;;;40.90;46.10;;;;;;4980561;28;20435;-63
2021/07/23 11:14:50;;;;;;;12.40;11.50;;;39.70;45.20;;;;;;4976394;28;20983;-64
2021/07/23 11:17:16;;;;;;;12.77;11.77;;;38.10;47.30;;;;;;5007556;28;20531;-64
2021/07/23 11:19:46;;;;;;;12.23;11.23;;;39.00;46.40;;;;;;5011421;28;20933;-63
2021/07/23 11:22:12;;;;;;;12.40;11.50;;;39.40;45.60;;;;;;5009545;28;20171;-63
2021/07/23 11:24:38;;;;;;;12.13;11.10;;;39.70;44.90;;;;;;4999319;28;20470;-64
2021/07/23 11:27:04;;;;;;;11.83;11.03;;;39.20;43.90;;;;;;4988552;28;20576;-66
2021/07/23 11:29:35;;;;;;;13.00;11.80;;;38.10;45.40;;;;;;4989498;28;20553;-64
2021/07/23 11:32:04;;;;;;;11.43;10.53;;;38.70;45.10;;;;;;4974604;28;20188;-64
2021/07/23 11:34:36;;;;;;;13.43;12.40;;;39.90;44.10;;;;;;4970348;28;20446;-64
2021/07/23 11:37:12;;;;;;;13.40;12.30;;;40.00;44.00;;;;;;4989005;28;20466;-63
2021/07/23 11:40:01;;;;;;;12.03;11.03;;;40.00;44.50;;;;;;4989381;28;20509;-64
2021/07/23 11:42:37;;;;;;;12.40;11.10;;;41.00;43.20;;;;;;4988491;28;20565;-64
2021/07/23 11:45:09;;;;;;;12.37;10.40;;;40.70;42.40;;;;;;4989537;28;20430;-64
2021/07/23 11:47:36;;;;;;;11.60;10.50;;;41.70;42.10;;;;;;4980069;28;20446;-64
2021/07/23 11:50:24;;;;;;;12.13;11.23;;;42.10;41.50;;;;;;4969991;28;20550;-63
2021/07/23 11:53:02;;;;;;;12.20;11.30;;;42.30;40.80;;;;;;4991625;28;20531;-62
2021/07/23 11:55:39;;;;;;;13.10;12.13;;;42.40;40.70;;;;;;4994505;28;20429;-64
2021/07/23 11:58:04;;;;;;;12.60;11.70;;;42.20;40.60;;;;;;5007839;28;20422;-63
2021/07/23 12:00:30;;;;;;;12.33;11.53;;;42.30;40.90;;;;;;5008845;28;20492;-64
2021/07/23 12:02:56;;;;;;;12.30;11.10;;;43.30;39.60;;;;;;4998932;28;20214;-64
2021/07/23 12:05:23;;;;;;;12.40;11.50;;;44.00;38.30;;;;;;4976547;28;20501;-63
2021/07/23 12:08:00;;;;;;;11.57;10.70;;;43.10;37.90;;;;;;4988424;28;20430;-63
2021/07/23 12:10:27;;;;;;;12.67;11.57;;;42.40;38.20;;;;;;5000061;28;20527;-63
2021/07/23 12:12:53;;;;;;;12.57;11.47;;;42.30;38.60;;;;;;5008990;28;20457;-64
2021/07/23 12:15:20;;;;;;;11.90;11.07;;;43.30;37.80;;;;;;5005563;28;20437;-62
2021/07/23 12:17:47;;;;;;;12.47;11.57;;;44.00;36.70;;;;;;5007806;28;20509;-64
2021/07/23 12:20:14;;;;;;;11.90;11.00;;;43.30;36.30;;;;;;5008173;28;20503;-63
2021/07/23 12:22:53;;;;;;;12.67;11.57;;;41.10;37.50;;;;;;5009094;28;21226;-64
2021/07/23 12:25:21;;;;;;;12.13;11.10;;;37.90;39.10;;;;;;5005881;28;20425;-64
2021/07/23 12:28:03;;;;;;;12.33;11.43;;;38.00;40.10;;;;;;5001452;28;20468;-63
2021/07/23 12:30:33;;;;;;;13.30;12.10;;;39.90;38.60;;;;;;5008223;28;20465;-63